KFAT/FAT METAR and TAF weather

Enter ICAO airport designator
Station Type Date Time Source
KFAT METAR 2020/09/25 06:53 UTC NOAA

KFAT 250653Z 31010KT 10SM CLR 23/14 A2992 RMK AO2 SLP128 T02330139


Station Type Date Time Source
KFAT Decoded METAR 2020/09/25 06:53 UTC NOAA

FRESNO AIR TERMINAL, CA, United States (KFAT) 36-47N 119-43W 104M
Sep 25, 2020 - 02:53 AM EDT / 2020.09.25 0653 UTC
Wind: from the NW (310 degrees) at 12 MPH (10 KT):0
Visibility: 10 mile(s):0
Sky conditions: clear
Temperature: 73.9 F (23.3 C)
Dew Point: 57.0 F (13.9 C)
Relative Humidity: 55%
Pressure (altimeter): 29.92 in. Hg (1013 hPa)
ob: KFAT 250653Z 31010KT 10SM CLR 23/14 A2992 RMK AO2 SLP128 T02330139
cycle: 7

Station Type Date Time Source
KFAT TAF 2020/09/25 06:22 UTC NOAA

TAF KFAT 250520Z 2506/2606 31008KT P6SM SKC

Example: see airport list